sensor_id;sensor_type;location;lat;lon;timestamp;pressure;altitude;pressure_sealevel;temperature;humidity
33286;BME280;19656;50.096;20.014;2024-02-26T00:01:51;98079.94;;;10.21;61.50
33286;BME280;19656;50.096;20.014;2024-02-26T00:06:55;98084.66;;;10.10;61.22
33286;BME280;19656;50.096;20.014;2024-02-26T00:11:59;98087.46;;;10.01;61.15
33286;BME280;19656;50.096;20.014;2024-02-26T00:17:02;98083.63;;;9.93;61.48
33286;BME280;19656;50.096;20.014;2024-02-26T00:22:05;98084.31;;;9.82;61.60
33286;BME280;19656;50.096;20.014;2024-02-26T00:27:08;98083.13;;;9.74;61.52
33286;BME280;19656;50.096;20.014;2024-02-26T00:32:12;98085.66;;;9.68;61.89
33286;BME280;19656;50.096;20.014;2024-02-26T00:37:15;98081.85;;;9.64;62.05
33286;BME280;19656;50.096;20.014;2024-02-26T00:42:18;98074.19;;;9.58;62.06
33286;BME280;19656;50.096;20.014;2024-02-26T00:47:21;98065.48;;;9.49;62.22
33286;BME280;19656;50.096;20.014;2024-02-26T00:52:25;98062.32;;;9.41;62.44
33286;BME280;19656;50.096;20.014;2024-02-26T00:57:28;98067.42;;;9.34;62.79
33286;BME280;19656;50.096;20.014;2024-02-26T01:02:31;98061.56;;;9.27;62.82
33286;BME280;19656;50.096;20.014;2024-02-26T01:07:34;98068.77;;;9.20;63.03
33286;BME280;19656;50.096;20.014;2024-02-26T01:12:39;98070.96;;;9.15;63.06
33286;BME280;19656;50.096;20.014;2024-02-26T01:17:42;98065.41;;;9.08;63.13
33286;BME280;19656;50.096;20.014;2024-02-26T01:22:46;98066.77;;;9.02;63.18
33286;BME280;19656;50.096;20.014;2024-02-26T01:27:49;98067.55;;;8.96;63.40
33286;BME280;19656;50.096;20.014;2024-02-26T01:32:52;98075.89;;;8.88;63.42
33286;BME280;19656;50.096;20.014;2024-02-26T01:37:56;98077.00;;;8.80;63.57
33286;BME280;19656;50.096;20.014;2024-02-26T01:42:59;98076.08;;;8.72;63.75
33286;BME280;19656;50.096;20.014;2024-02-26T01:48:03;98069.77;;;8.69;64.10
33286;BME280;19656;50.096;20.014;2024-02-26T01:53:07;98071.73;;;8.64;64.18
33286;BME280;19656;50.096;20.014;2024-02-26T01:58:11;98070.87;;;8.53;64.32
33286;BME280;19656;50.096;20.014;2024-02-26T02:03:15;98074.63;;;8.50;64.60
33286;BME280;19656;50.096;20.014;2024-02-26T02:08:19;98079.08;;;8.49;64.91
33286;BME280;19656;50.096;20.014;2024-02-26T02:13:23;98074.41;;;8.43;65.09
33286;BME280;19656;50.096;20.014;2024-02-26T02:18:26;98068.09;;;8.34;65.26
33286;BME280;19656;50.096;20.014;2024-02-26T02:23:29;98069.42;;;8.30;65.74
33286;BME280;19656;50.096;20.014;2024-02-26T02:28:32;98075.30;;;8.41;66.10
33286;BME280;19656;50.096;20.014;2024-02-26T02:33:36;98076.49;;;8.51;66.12
33286;BME280;19656;50.096;20.014;2024-02-26T02:38:48;98080.27;;;8.61;65.78
33286;BME280;19656;50.096;20.014;2024-02-26T02:43:53;98083.92;;;8.61;65.38
33286;BME280;19656;50.096;20.014;2024-02-26T02:48:56;98080.50;;;8.57;65.22
33286;BME280;19656;50.096;20.014;2024-02-26T02:53:59;98085.01;;;8.51;64.96
33286;BME280;19656;50.096;20.014;2024-02-26T02:59:02;98083.57;;;8.43;64.83
33286;BME280;19656;50.096;20.014;2024-02-26T03:04:06;98082.92;;;8.35;64.80
33286;BME280;19656;50.096;20.014;2024-02-26T03:09:09;98080.93;;;8.25;64.81
33286;BME280;19656;50.096;20.014;2024-02-26T03:14:13;98085.99;;;8.15;65.00
33286;BME280;19656;50.096;20.014;2024-02-26T03:19:16;98089.45;;;8.06;64.90
33286;BME280;19656;50.096;20.014;2024-02-26T03:24:19;98084.41;;;7.97;65.00
33286;BME280;19656;50.096;20.014;2024-02-26T03:29:23;98077.48;;;7.89;65.00
33286;BME280;19656;50.096;20.014;2024-02-26T03:34:26;98071.15;;;7.81;65.12
33286;BME280;19656;50.096;20.014;2024-02-26T03:39:30;98065.98;;;7.74;65.35
33286;BME280;19656;50.096;20.014;2024-02-26T03:44:33;98067.03;;;7.66;65.47
33286;BME280;19656;50.096;20.014;2024-02-26T03:49:36;98070.63;;;7.59;65.56
33286;BME280;19656;50.096;20.014;2024-02-26T03:54:40;98056.73;;;7.53;65.75
33286;BME280;19656;50.096;20.014;2024-02-26T03:59:43;98062.45;;;7.47;65.66
33286;BME280;19656;50.096;20.014;2024-02-26T04:04:46;98054.92;;;7.43;65.75
33286;BME280;19656;50.096;20.014;2024-02-26T04:09:50;98042.75;;;7.38;65.63
33286;BME280;19656;50.096;20.014;2024-02-26T04:14:53;98039.39;;;7.35;65.55
33286;BME280;19656;50.096;20.014;2024-02-26T04:19:57;98043.21;;;7.28;65.41
33286;BME280;19656;50.096;20.014;2024-02-26T04:25:00;98035.08;;;7.20;65.28
33286;BME280;19656;50.096;20.014;2024-02-26T04:30:05;98039.39;;;7.13;65.29
33286;BME280;19656;50.096;20.014;2024-02-26T04:35:09;98041.17;;;7.10;65.58
33286;BME280;19656;50.096;20.014;2024-02-26T04:40:12;98041.67;;;7.05;65.58
33286;BME280;19656;50.096;20.014;2024-02-26T04:45:16;98042.30;;;7.01;65.74
33286;BME280;19656;50.096;20.014;2024-02-26T04:50:19;98038.27;;;6.95;65.83
33286;BME280;19656;50.096;20.014;2024-02-26T04:55:22;98040.15;;;7.01;65.88
33286;BME280;19656;50.096;20.014;2024-02-26T05:00:25;98041.46;;;7.03;65.88
33286;BME280;19656;50.096;20.014;2024-02-26T05:05:28;98043.57;;;7.06;65.65
33286;BME280;19656;50.096;20.014;2024-02-26T05:10:32;98040.66;;;7.07;65.52
33286;BME280;19656;50.096;20.014;2024-02-26T05:15:35;98045.44;;;7.04;65.35
33286;BME280;19656;50.096;20.014;2024-02-26T05:20:39;98042.91;;;7.16;70.89
33286;BME280;19656;50.096;20.014;2024-02-26T05:25:42;98039.96;;;7.61;67.52
33286;BME280;19656;50.096;20.014;2024-02-26T05:30:45;98040.94;;;7.30;65.74
33286;BME280;19656;50.096;20.014;2024-02-26T05:35:48;98043.55;;;7.09;65.57
33286;BME280;19656;50.096;20.014;2024-02-26T05:40:52;98046.77;;;7.05;66.07
33286;BME280;19656;50.096;20.014;2024-02-26T05:45:55;98059.86;;;6.96;65.55
33286;BME280;19656;50.096;20.014;2024-02-26T05:50:58;98064.61;;;6.88;65.67
33286;BME280;19656;50.096;20.014;2024-02-26T05:56:01;98071.42;;;6.81;65.92
33286;BME280;19656;50.096;20.014;2024-02-26T06:01:04;98073.23;;;6.75;65.98
33286;BME280;19656;50.096;20.014;2024-02-26T06:06:08;98074.20;;;6.70;66.50
33286;BME280;19656;50.096;20.014;2024-02-26T06:11:12;98084.29;;;6.70;66.76
33286;BME280;19656;50.096;20.014;2024-02-26T06:16:15;98087.90;;;6.68;66.86
33286;BME280;19656;50.096;20.014;2024-02-26T06:21:18;98088.92;;;6.71;67.41
33286;BME280;19656;50.096;20.014;2024-02-26T06:26:21;98084.15;;;6.83;67.53
33286;BME280;19656;50.096;20.014;2024-02-26T06:31:24;98085.21;;;7.03;68.53
33286;BME280;19656;50.096;20.014;2024-02-26T06:36:30;98080.34;;;7.21;68.16
33286;BME280;19656;50.096;20.014;2024-02-26T06:41:35;98079.55;;;7.36;68.20
33286;BME280;19656;50.096;20.014;2024-02-26T06:46:39;98088.33;;;7.51;67.99
33286;BME280;19656;50.096;20.014;2024-02-26T06:51:42;98092.16;;;7.62;67.79
33286;BME280;19656;50.096;20.014;2024-02-26T06:56:46;98091.37;;;7.71;67.95
33286;BME280;19656;50.096;20.014;2024-02-26T07:01:49;98098.95;;;7.83;68.01
33286;BME280;19656;50.096;20.014;2024-02-26T07:06:52;98092.16;;;8.00;68.26
33286;BME280;19656;50.096;20.014;2024-02-26T07:11:56;98094.30;;;8.23;68.77
33286;BME280;19656;50.096;20.014;2024-02-26T07:17:03;98098.84;;;8.37;67.78
33286;BME280;19656;50.096;20.014;2024-02-26T07:22:06;98090.55;;;8.50;67.68
33286;BME280;19656;50.096;20.014;2024-02-26T07:27:09;98093.80;;;8.62;67.56
33286;BME280;19656;50.096;20.014;2024-02-26T07:32:13;98097.95;;;8.76;67.49
33286;BME280;19656;50.096;20.014;2024-02-26T07:37:17;98095.33;;;8.96;67.14
33286;BME280;19656;50.096;20.014;2024-02-26T07:42:20;98082.35;;;9.19;67.03
33286;BME280;19656;50.096;20.014;2024-02-26T07:47:23;98095.80;;;9.43;66.66
33286;BME280;19656;50.096;20.014;2024-02-26T07:52:26;98090.90;;;9.62;65.79
33286;BME280;19656;50.096;20.014;2024-02-26T07:57:31;98084.31;;;9.84;66.31
33286;BME280;19656;50.096;20.014;2024-02-26T08:02:34;98095.25;;;10.01;65.45
33286;BME280;19656;50.096;20.014;2024-02-26T08:07:38;98103.43;;;10.08;65.26
33286;BME280;19656;50.096;20.014;2024-02-26T08:12:42;98094.98;;;10.14;65.49
33286;BME280;19656;50.096;20.014;2024-02-26T08:17:45;98089.75;;;10.25;65.64
33286;BME280;19656;50.096;20.014;2024-02-26T08:22:50;98095.75;;;10.39;65.82
33286;BME280;19656;50.096;20.014;2024-02-26T08:27:54;98092.70;;;10.58;66.65
33286;BME280;19656;50.096;20.014;2024-02-26T08:32:57;98094.46;;;10.86;67.36
33286;BME280;19656;50.096;20.014;2024-02-26T08:38:00;98099.05;;;11.09;66.92
33286;BME280;19656;50.096;20.014;2024-02-26T08:43:04;98092.14;;;11.31;66.67
33286;BME280;19656;50.096;20.014;2024-02-26T08:48:07;98089.29;;;11.59;66.59
33286;BME280;19656;50.096;20.014;2024-02-26T08:53:11;98089.06;;;11.84;65.92
33286;BME280;19656;50.096;20.014;2024-02-26T08:58:14;98079.64;;;12.10;65.97
33286;BME280;19656;50.096;20.014;2024-02-26T09:03:17;98074.40;;;12.39;65.80
33286;BME280;19656;50.096;20.014;2024-02-26T09:08:21;98064.35;;;12.62;65.15
33286;BME280;19656;50.096;20.014;2024-02-26T09:13:25;98059.32;;;12.79;64.34
33286;BME280;19656;50.096;20.014;2024-02-26T09:18:28;98063.46;;;12.87;63.88
33286;BME280;19656;50.096;20.014;2024-02-26T09:23:32;98065.59;;;12.91;63.67
33286;BME280;19656;50.096;20.014;2024-02-26T09:28:35;98068.59;;;12.89;63.85
33286;BME280;19656;50.096;20.014;2024-02-26T09:33:40;98066.13;;;12.97;63.72
33286;BME280;19656;50.096;20.014;2024-02-26T09:38:44;98068.25;;;13.01;63.47
33286;BME280;19656;50.096;20.014;2024-02-26T09:44:04;98070.44;;;13.05;63.91
33286;BME280;19656;50.096;20.014;2024-02-26T09:49:08;98076.16;;;13.09;63.53
33286;BME280;19656;50.096;20.014;2024-02-26T09:54:13;98075.38;;;13.10;63.32
33286;BME280;19656;50.096;20.014;2024-02-26T09:59:18;98073.36;;;13.14;63.07
33286;BME280;19656;50.096;20.014;2024-02-26T10:04:22;98074.18;;;13.21;63.17
33286;BME280;19656;50.096;20.014;2024-02-26T10:09:25;98067.92;;;13.36;63.33
33286;BME280;19656;50.096;20.014;2024-02-26T10:14:29;98058.67;;;13.55;63.16
33286;BME280;19656;50.096;20.014;2024-02-26T10:19:32;98054.20;;;13.75;62.78
33286;BME280;19656;50.096;20.014;2024-02-26T10:24:40;98051.23;;;14.08;62.84
33286;BME280;19656;50.096;20.014;2024-02-26T10:29:44;98044.69;;;14.55;62.28
33286;BME280;19656;50.096;20.014;2024-02-26T10:34:47;98046.29;;;15.00;61.29
33286;BME280;19656;50.096;20.014;2024-02-26T10:39:50;98043.65;;;15.31;60.26
33286;BME280;19656;50.096;20.014;2024-02-26T10:44:54;98037.39;;;15.71;58.55
33286;BME280;19656;50.096;20.014;2024-02-26T10:49:58;98032.21;;;16.04;56.62
33286;BME280;19656;50.096;20.014;2024-02-26T10:55:02;98030.69;;;16.43;55.92
33286;BME280;19656;50.096;20.014;2024-02-26T11:00:07;98020.58;;;16.81;54.41
33286;BME280;19656;50.096;20.014;2024-02-26T11:05:14;98019.68;;;17.01;53.38
33286;BME280;19656;50.096;20.014;2024-02-26T11:10:18;98013.48;;;17.21;52.79
33286;BME280;19656;50.096;20.014;2024-02-26T11:15:22;98007.13;;;17.47;52.02
33286;BME280;19656;50.096;20.014;2024-02-26T11:20:28;98004.67;;;17.70;51.91
33286;BME280;19656;50.096;20.014;2024-02-26T11:25:31;97997.90;;;17.90;51.38
33286;BME280;19656;50.096;20.014;2024-02-26T11:30:41;97996.82;;;18.06;50.43
33286;BME280;19656;50.096;20.014;2024-02-26T11:35:46;97992.51;;;18.00;49.83
33286;BME280;19656;50.096;20.014;2024-02-26T11:40:50;97992.72;;;18.12;49.30
33286;BME280;19656;50.096;20.014;2024-02-26T11:45:53;97993.83;;;18.02;49.02
33286;BME280;19656;50.096;20.014;2024-02-26T11:50:59;97987.61;;;18.05;49.48
33286;BME280;19656;50.096;20.014;2024-02-26T12:01:42;97986.83;;;18.04;48.64
33286;BME280;19656;50.096;20.014;2024-02-26T12:06:56;97988.00;;;17.96;49.09
33286;BME280;19656;50.096;20.014;2024-02-26T12:12:07;97989.38;;;17.87;49.01
33286;BME280;19656;50.096;20.014;2024-02-26T12:17:22;97982.58;;;17.81;49.18
33286;BME280;19656;50.096;20.014;2024-02-26T12:22:26;97983.92;;;17.85;49.49
33286;BME280;19656;50.096;20.014;2024-02-26T12:27:30;97974.89;;;17.93;48.78
33286;BME280;19656;50.096;20.014;2024-02-26T12:32:35;97968.89;;;18.04;48.52
33286;BME280;19656;50.096;20.014;2024-02-26T12:37:38;97979.35;;;18.11;48.43
33286;BME280;19656;50.096;20.014;2024-02-26T12:42:46;97983.45;;;18.18;48.13
33286;BME280;19656;50.096;20.014;2024-02-26T12:47:49;97982.63;;;18.03;48.10
33286;BME280;19656;50.096;20.014;2024-02-26T12:52:55;97980.00;;;17.94;48.08
33286;BME280;19656;50.096;20.014;2024-02-26T12:57:58;97980.33;;;17.89;47.50
33286;BME280;19656;50.096;20.014;2024-02-26T13:03:02;97981.91;;;17.85;47.80
33286;BME280;19656;50.096;20.014;2024-02-26T13:08:07;97986.52;;;17.79;48.01
33286;BME280;19656;50.096;20.014;2024-02-26T13:13:14;97979.05;;;17.75;48.47
33286;BME280;19656;50.096;20.014;2024-02-26T13:18:18;97975.10;;;17.73;48.74
33286;BME280;19656;50.096;20.014;2024-02-26T13:23:21;97976.48;;;17.73;48.52
33286;BME280;19656;50.096;20.014;2024-02-26T13:28:24;97979.95;;;17.73;48.43
33286;BME280;19656;50.096;20.014;2024-02-26T13:33:30;97982.27;;;17.63;48.41
33286;BME280;19656;50.096;20.014;2024-02-26T13:38:34;97982.30;;;17.56;48.88
33286;BME280;19656;50.096;20.014;2024-02-26T13:43:37;97985.09;;;17.55;49.39
33286;BME280;19656;50.096;20.014;2024-02-26T13:48:41;97989.80;;;17.51;49.02
33286;BME280;19656;50.096;20.014;2024-02-26T13:53:44;97992.74;;;17.47;49.21
33286;BME280;19656;50.096;20.014;2024-02-26T13:58:48;97992.44;;;17.43;49.33
33286;BME280;19656;50.096;20.014;2024-02-26T14:03:51;97994.38;;;17.39;49.46
33286;BME280;19656;50.096;20.014;2024-02-26T14:08:58;97996.95;;;17.37;49.64
33286;BME280;19656;50.096;20.014;2024-02-26T14:14:02;97998.11;;;17.29;49.80
33286;BME280;19656;50.096;20.014;2024-02-26T14:19:06;97995.14;;;17.25;49.99
33286;BME280;19656;50.096;20.014;2024-02-26T14:24:09;97996.34;;;17.20;50.22
33286;BME280;19656;50.096;20.014;2024-02-26T14:29:12;97996.73;;;17.27;50.79
33286;BME280;19656;50.096;20.014;2024-02-26T14:34:15;97994.46;;;17.26;50.13
33286;BME280;19656;50.096;20.014;2024-02-26T14:39:21;97990.39;;;17.22;49.88
33286;BME280;19656;50.096;20.014;2024-02-26T14:44:25;98003.67;;;17.12;50.17
33286;BME280;19656;50.096;20.014;2024-02-26T14:49:28;98006.63;;;17.06;50.17
33286;BME280;19656;50.096;20.014;2024-02-26T14:54:33;98018.27;;;17.01;50.41
33286;BME280;19656;50.096;20.014;2024-02-26T14:59:40;98018.35;;;16.95;50.41
33286;BME280;19656;50.096;20.014;2024-02-26T15:04:44;98009.98;;;16.83;50.55
33286;BME280;19656;50.096;20.014;2024-02-26T15:09:47;98009.08;;;16.71;50.83
33286;BME280;19656;50.096;20.014;2024-02-26T15:14:51;98017.17;;;16.60;51.18
33286;BME280;19656;50.096;20.014;2024-02-26T15:19:54;98028.36;;;16.52;51.43
33286;BME280;19656;50.096;20.014;2024-02-26T15:25:00;98033.56;;;16.45;51.71
33286;BME280;19656;50.096;20.014;2024-02-26T15:30:04;98029.62;;;16.38;51.74
33286;BME280;19656;50.096;20.014;2024-02-26T15:35:09;98024.86;;;16.26;52.16
33286;BME280;19656;50.096;20.014;2024-02-26T15:40:13;98036.23;;;16.21;52.33
33286;BME280;19656;50.096;20.014;2024-02-26T15:45:16;98041.25;;;16.12;52.65
33286;BME280;19656;50.096;20.014;2024-02-26T15:50:20;98044.48;;;16.06;52.89
33286;BME280;19656;50.096;20.014;2024-02-26T15:55:23;98047.14;;;16.03;53.05
33286;BME280;19656;50.096;20.014;2024-02-26T16:00:26;98055.90;;;15.96;53.23
33286;BME280;19656;50.096;20.014;2024-02-26T16:05:29;98058.95;;;15.89;53.43
33286;BME280;19656;50.096;20.014;2024-02-26T16:10:33;98061.68;;;15.79;53.65
33286;BME280;19656;50.096;20.014;2024-02-26T16:15:36;98068.36;;;15.71;53.84
33286;BME280;19656;50.096;20.014;2024-02-26T16:20:39;98075.11;;;15.64;54.01
33286;BME280;19656;50.096;20.014;2024-02-26T16:25:42;98076.48;;;15.56;54.31
33286;BME280;19656;50.096;20.014;2024-02-26T16:30:45;98083.98;;;15.45;54.64
33286;BME280;19656;50.096;20.014;2024-02-26T16:35:49;98091.34;;;15.37;54.92
33286;BME280;19656;50.096;20.014;2024-02-26T16:40:52;98090.55;;;15.30;54.95
33286;BME280;19656;50.096;20.014;2024-02-26T16:45:55;98089.41;;;15.27;54.93
33286;BME280;19656;50.096;20.014;2024-02-26T16:50:58;98090.39;;;15.23;54.88
33286;BME280;19656;50.096;20.014;2024-02-26T16:56:02;98091.38;;;15.11;55.13
33286;BME280;19656;50.096;20.014;2024-02-26T17:01:06;98098.83;;;14.98;55.41
33286;BME280;19656;50.096;20.014;2024-02-26T17:06:09;98103.46;;;14.89;55.69
33286;BME280;19656;50.096;20.014;2024-02-26T17:11:13;98106.75;;;14.82;55.91
33286;BME280;19656;50.096;20.014;2024-02-26T17:16:18;98114.15;;;14.76;56.11
33286;BME280;19656;50.096;20.014;2024-02-26T17:21:23;98119.14;;;14.70;56.21
33286;BME280;19656;50.096;20.014;2024-02-26T17:26:26;98122.45;;;14.67;56.31
33286;BME280;19656;50.096;20.014;2024-02-26T17:31:30;98127.55;;;14.62;56.39
33286;BME280;19656;50.096;20.014;2024-02-26T17:36:33;98129.63;;;14.61;56.45
33286;BME280;19656;50.096;20.014;2024-02-26T17:41:36;98137.13;;;14.59;56.50
33286;BME280;19656;50.096;20.014;2024-02-26T17:46:40;98139.35;;;14.57;56.47
33286;BME280;19656;50.096;20.014;2024-02-26T17:51:43;98141.80;;;14.51;56.60
33286;BME280;19656;50.096;20.014;2024-02-26T17:56:47;98144.43;;;14.44;56.82
33286;BME280;19656;50.096;20.014;2024-02-26T18:01:50;98148.57;;;14.37;57.23
33286;BME280;19656;50.096;20.014;2024-02-26T18:06:53;98152.52;;;14.31;57.17
33286;BME280;19656;50.096;20.014;2024-02-26T18:11:57;98157.52;;;14.23;57.25
33286;BME280;19656;50.096;20.014;2024-02-26T18:17:00;98163.80;;;14.13;57.37
33286;BME280;19656;50.096;20.014;2024-02-26T18:22:04;98170.48;;;14.07;57.56
33286;BME280;19656;50.096;20.014;2024-02-26T18:27:07;98176.96;;;14.00;57.61
33286;BME280;19656;50.096;20.014;2024-02-26T18:32:11;98184.87;;;13.87;57.78
33286;BME280;19656;50.096;20.014;2024-02-26T18:37:14;98189.73;;;13.75;58.06
33286;BME280;19656;50.096;20.014;2024-02-26T18:42:17;98196.02;;;13.64;58.41
33286;BME280;19656;50.096;20.014;2024-02-26T18:47:22;98198.04;;;13.51;58.61
33286;BME280;19656;50.096;20.014;2024-02-26T18:52:26;98201.78;;;13.39;58.94
33286;BME280;19656;50.096;20.014;2024-02-26T18:57:30;98205.05;;;13.28;59.20
33286;BME280;19656;50.096;20.014;2024-02-26T19:02:33;98207.31;;;13.16;59.64
33286;BME280;19656;50.096;20.014;2024-02-26T19:07:36;98223.10;;;13.04;60.12
33286;BME280;19656;50.096;20.014;2024-02-26T19:12:42;98228.95;;;12.94;60.43
33286;BME280;19656;50.096;20.014;2024-02-26T19:17:47;98244.61;;;12.90;60.82
33286;BME280;19656;50.096;20.014;2024-02-26T19:22:50;98251.20;;;12.86;61.15
33286;BME280;19656;50.096;20.014;2024-02-26T19:27:55;98252.11;;;12.81;61.77
33286;BME280;19656;50.096;20.014;2024-02-26T19:32:58;98258.88;;;12.77;61.92
33286;BME280;19656;50.096;20.014;2024-02-26T19:38:01;98266.25;;;12.74;62.10
33286;BME280;19656;50.096;20.014;2024-02-26T19:43:05;98271.71;;;12.66;62.27
33286;BME280;19656;50.096;20.014;2024-02-26T19:48:08;98271.05;;;12.67;62.66
33286;BME280;19656;50.096;20.014;2024-02-26T19:53:12;98278.35;;;12.68;62.98
33286;BME280;19656;50.096;20.014;2024-02-26T19:58:15;98286.27;;;12.64;63.20
33286;BME280;19656;50.096;20.014;2024-02-26T20:03:19;98280.24;;;12.64;63.31
33286;BME280;19656;50.096;20.014;2024-02-26T20:08:22;98294.48;;;12.60;63.29
33286;BME280;19656;50.096;20.014;2024-02-26T20:13:25;98288.83;;;12.57;63.24
33286;BME280;19656;50.096;20.014;2024-02-26T20:18:31;98297.56;;;12.59;63.67
33286;BME280;19656;50.096;20.014;2024-02-26T20:23:34;98291.41;;;12.75;63.60
33286;BME280;19656;50.096;20.014;2024-02-26T20:28:39;98295.49;;;12.80;62.92
33286;BME280;19656;50.096;20.014;2024-02-26T20:33:42;98299.33;;;12.76;62.63
33286;BME280;19656;50.096;20.014;2024-02-26T20:38:46;98307.42;;;12.71;62.60
33286;BME280;19656;50.096;20.014;2024-02-26T20:43:51;98312.27;;;12.62;62.68
33286;BME280;19656;50.096;20.014;2024-02-26T20:48:54;98311.03;;;12.55;62.89
33286;BME280;19656;50.096;20.014;2024-02-26T20:53:57;98314.36;;;12.47;63.37
33286;BME280;19656;50.096;20.014;2024-02-26T20:59:01;98320.64;;;12.46;64.27
33286;BME280;19656;50.096;20.014;2024-02-26T21:04:05;98328.33;;;12.48;63.37
33286;BME280;19656;50.096;20.014;2024-02-26T21:09:09;98334.30;;;12.36;63.27
33286;BME280;19656;50.096;20.014;2024-02-26T21:14:12;98342.54;;;12.22;63.41
33286;BME280;19656;50.096;20.014;2024-02-26T21:19:15;98339.38;;;12.13;63.76
33286;BME280;19656;50.096;20.014;2024-02-26T21:24:19;98353.23;;;12.08;63.91
33286;BME280;19656;50.096;20.014;2024-02-26T21:29:22;98354.35;;;11.99;63.92
33286;BME280;19656;50.096;20.014;2024-02-26T21:34:25;98359.73;;;11.85;64.29
33286;BME280;19656;50.096;20.014;2024-02-26T21:39:29;98360.92;;;11.80;64.83
33286;BME280;19656;50.096;20.014;2024-02-26T21:44:32;98362.98;;;11.74;64.49
33286;BME280;19656;50.096;20.014;2024-02-26T21:49:35;98362.33;;;11.71;64.58
33286;BME280;19656;50.096;20.014;2024-02-26T21:54:47;98369.70;;;11.68;64.65
33286;BME280;19656;50.096;20.014;2024-02-26T21:59:50;98368.58;;;11.59;64.68
33286;BME280;19656;50.096;20.014;2024-02-26T22:04:54;98378.04;;;11.52;64.94
33286;BME280;19656;50.096;20.014;2024-02-26T22:09:57;98386.66;;;11.46;64.97
33286;BME280;19656;50.096;20.014;2024-02-26T22:15:01;98387.23;;;11.36;65.00
33286;BME280;19656;50.096;20.014;2024-02-26T22:20:08;98388.96;;;11.20;65.01
33286;BME280;19656;50.096;20.014;2024-02-26T22:25:13;98391.67;;;11.03;65.16
33286;BME280;19656;50.096;20.014;2024-02-26T22:30:17;98394.56;;;10.90;65.40
33286;BME280;19656;50.096;20.014;2024-02-26T22:35:20;98400.11;;;10.78;65.76
33286;BME280;19656;50.096;20.014;2024-02-26T22:40:23;98398.83;;;10.66;65.89
33286;BME280;19656;50.096;20.014;2024-02-26T22:45:26;98399.77;;;10.58;66.27
33286;BME280;19656;50.096;20.014;2024-02-26T22:50:30;98399.58;;;10.51;66.47
33286;BME280;19656;50.096;20.014;2024-02-26T22:55:33;98400.25;;;10.44;66.71
33286;BME280;19656;50.096;20.014;2024-02-26T23:00:36;98399.48;;;10.37;67.14
33286;BME280;19656;50.096;20.014;2024-02-26T23:05:43;98411.41;;;10.32;67.24
33286;BME280;19656;50.096;20.014;2024-02-26T23:10:47;98414.25;;;10.29;67.63
33286;BME280;19656;50.096;20.014;2024-02-26T23:15:50;98419.48;;;10.30;67.76
33286;BME280;19656;50.096;20.014;2024-02-26T23:20:56;98426.70;;;10.28;67.93
33286;BME280;19656;50.096;20.014;2024-02-26T23:25:59;98431.20;;;10.30;68.00
33286;BME280;19656;50.096;20.014;2024-02-26T23:31:02;98434.86;;;10.26;67.92
33286;BME280;19656;50.096;20.014;2024-02-26T23:36:06;98430.98;;;10.20;68.05
33286;BME280;19656;50.096;20.014;2024-02-26T23:41:11;98435.05;;;10.15;68.10
33286;BME280;19656;50.096;20.014;2024-02-26T23:46:14;98437.72;;;10.07;68.24
33286;BME280;19656;50.096;20.014;2024-02-26T23:51:17;98441.90;;;10.03;68.46
33286;BME280;19656;50.096;20.014;2024-02-26T23:56:20;98443.83;;;9.99;68.75
